Judith Gap, Montana
Current Conditions -  °F | °C
As of 4:54 AM on Monday 24 Nov 2014 (Local Time) from KLWT Reporting Station
Overcast Overcast  
Wind Chill: 25°   Ceiling: 6000
Heat Index: 34°   Visibility: 10mi
Dew Point: 23°   Wind: 14mph
Humidity: 64%   Direction: 290°WNW
Pressure: 29.91"   Gusts: NA
Location:  46.68°N, 109.75°W
Report Text: KLWT 241154Z AUTO 29012KT 10SM OVC060 01/M05 A2991 RMK AO2 SLP149 T00111050 10033 20000 51029
Loading
Personal Weather Stations






























Interactive Weather Map New forecast layout! Learn more

10-Day Weather Forecast

Advertisements
Track Severe Weather on mobile